Time;durP1;ratioP1;P1;durP2;ratioP2;P2;SDS_P1;SDS_P2;PMS_P1;PMS_P2;Temp;Humidity;BMP_temperature;BMP_pressure;BME280_temperature;BME280_humidity;BME280_pressure;Samples;Min_cycle;Max_cycle;Signal;HPM_P1;HPM_P2
2022/07/18 00:02:17;;;;;;;3.83;2.33;;;16.00;99.90;;;;;;5093830;28;20423;-68
2022/07/18 00:04:43;;;;;;;2.67;2.47;;;16.10;99.90;;;;;;5096484;28;20228;-68
2022/07/18 00:07:12;;;;;;;3.57;2.90;;;16.00;99.90;;;;;;5095142;28;20447;-76
2022/07/18 00:09:39;;;;;;;3.27;2.63;;;16.00;99.90;;;;;;5096305;28;20436;-68
2022/07/18 00:12:07;;;;;;;4.03;2.50;;;15.90;99.90;;;;;;5096057;28;20408;-68
2022/07/18 00:14:33;;;;;;;2.70;2.50;;;15.90;99.90;;;;;;5095473;28;20912;-76
2022/07/18 00:16:59;;;;;;;2.97;2.70;;;15.90;99.90;;;;;;5095990;28;20403;-69
2022/07/18 00:19:26;;;;;;;2.83;2.60;;;15.80;99.90;;;;;;5095813;28;20530;-72
2022/07/18 00:21:51;;;;;;;2.63;2.43;;;15.70;99.90;;;;;;5094775;28;20184;-68
2022/07/18 00:24:17;;;;;;;2.93;2.73;;;15.70;99.90;;;;;;5093788;28;20435;-76
2022/07/18 00:26:43;;;;;;;2.80;2.20;;;15.80;99.90;;;;;;5096057;28;20527;-76
2022/07/18 00:29:09;;;;;;;2.60;2.40;;;15.70;99.90;;;;;;5095916;28;20178;-69
2022/07/18 00:31:35;;;;;;;3.13;2.90;;;15.80;99.90;;;;;;5095887;28;20488;-68
2022/07/18 00:34:02;;;;;;;4.13;2.90;;;15.80;99.90;;;;;;5094842;28;20182;-68
2022/07/18 00:36:28;;;;;;;2.17;1.93;;;15.80;99.90;;;;;;5094335;28;20757;-69
2022/07/18 00:38:54;;;;;;;2.47;2.27;;;15.90;99.90;;;;;;5095671;28;20451;-68
2022/07/18 00:41:20;;;;;;;2.63;2.43;;;15.80;99.90;;;;;;5095750;28;20418;-68
2022/07/18 00:43:46;;;;;;;3.57;2.47;;;15.80;99.90;;;;;;5094722;28;20228;-68
2022/07/18 00:46:12;;;;;;;2.50;2.30;;;15.80;99.90;;;;;;5095487;28;20412;-68
2022/07/18 00:48:39;;;;;;;2.60;2.33;;;15.80;99.90;;;;;;5094281;28;20189;-67
2022/07/18 00:51:05;;;;;;;1.87;1.67;;;15.70;99.90;;;;;;5095484;28;20173;-76
2022/07/18 00:53:30;;;;;;;2.70;2.60;;;15.70;99.90;;;;;;5093596;28;20403;-68
2022/07/18 00:55:57;;;;;;;2.80;2.60;;;15.70;99.90;;;;;;5093983;28;20672;-68
2022/07/18 00:58:23;;;;;;;3.40;2.30;;;15.70;99.90;;;;;;5095346;28;20197;-76
2022/07/18 01:03:33;;;;;;;2.60;2.17;;;15.70;99.90;;;;;;5088361;28;20180;-71
2022/07/18 01:05:59;;;;;;;3.90;2.50;;;15.70;99.90;;;;;;5075173;28;20487;-68
2022/07/18 01:08:25;;;;;;;2.97;2.57;;;15.70;99.90;;;;;;5074855;28;20194;-77
2022/07/18 01:10:51;;;;;;;2.73;2.50;;;15.70;99.90;;;;;;5075171;28;20197;-68
2022/07/18 01:13:17;;;;;;;2.90;2.50;;;15.60;99.90;;;;;;5073520;28;20651;-76
2022/07/18 01:15:43;;;;;;;2.80;2.60;;;15.60;99.90;;;;;;5073661;28;20504;-77
2022/07/18 01:18:09;;;;;;;3.17;2.97;;;15.70;99.90;;;;;;5075652;28;20862;-68
2022/07/18 01:20:35;;;;;;;3.17;2.80;;;15.60;99.90;;;;;;5074710;28;20450;-68
2022/07/18 01:23:01;;;;;;;3.33;2.00;;;15.60;99.90;;;;;;5072810;28;20531;-76
2022/07/18 01:25:27;;;;;;;3.10;2.80;;;15.60;99.90;;;;;;5074465;28;20497;-76
2022/07/18 01:27:53;;;;;;;3.50;2.60;;;15.60;99.90;;;;;;5074117;28;20166;-69
2022/07/18 01:30:19;;;;;;;3.70;3.37;;;15.60;99.90;;;;;;5073963;28;20491;-75
2022/07/18 01:32:45;;;;;;;2.73;2.53;;;15.50;99.90;;;;;;5073288;28;20489;-68
2022/07/18 01:35:11;;;;;;;3.10;2.80;;;15.50;99.90;;;;;;5074298;28;20424;-68
2022/07/18 01:37:37;;;;;;;3.33;3.03;;;15.60;99.90;;;;;;5074446;28;20182;-76
2022/07/18 01:40:08;;;;;;;3.00;2.80;;;15.60;99.90;;;;;;5074185;28;20535;-68
2022/07/18 01:42:34;;;;;;;2.80;2.60;;;15.60;99.90;;;;;;5073167;28;20488;-77
2022/07/18 01:45:00;;;;;;;3.20;2.90;;;15.60;99.90;;;;;;5074297;28;20504;-76
2022/07/18 01:47:26;;;;;;;2.97;2.67;;;15.70;99.90;;;;;;5073831;28;20220;-68
2022/07/18 01:49:51;;;;;;;3.60;3.30;;;15.70;99.90;;;;;;5093304;28;20203;-68
2022/07/18 01:52:17;;;;;;;3.30;3.10;;;15.70;99.90;;;;;;5093505;28;20681;-71
2022/07/18 01:54:43;;;;;;;4.23;3.60;;;15.70;99.90;;;;;;5093043;28;20276;-75
2022/07/18 01:57:08;;;;;;;2.80;2.57;;;15.70;99.90;;;;;;5094286;28;20173;-68
2022/07/18 01:59:35;;;;;;;4.33;3.27;;;15.70;99.90;;;;;;5092957;28;20211;-76
2022/07/18 02:02:04;;;;;;;3.70;2.77;;;15.70;99.90;;;;;;5094070;28;20222;-76
2022/07/18 02:07:30;;;;;;;2.97;2.77;;;15.80;99.90;;;;;;5071023;28;20506;-76
2022/07/18 02:09:56;;;;;;;3.20;2.90;;;15.80;99.90;;;;;;5094052;28;20463;-68
2022/07/18 02:12:22;;;;;;;3.70;3.40;;;15.80;99.90;;;;;;5093095;28;20436;-76
2022/07/18 02:14:48;;;;;;;2.90;2.70;;;15.80;99.90;;;;;;5093894;28;20489;-69
2022/07/18 02:17:14;;;;;;;3.40;3.10;;;15.80;99.90;;;;;;5092924;28;20416;-77
2022/07/18 02:19:40;;;;;;;2.90;2.60;;;15.90;99.90;;;;;;5091366;28;20209;-76
2022/07/18 02:22:06;;;;;;;3.30;2.30;;;15.90;99.90;;;;;;5073490;28;20499;-76
2022/07/18 02:24:32;;;;;;;2.27;2.17;;;16.00;99.90;;;;;;5072489;28;20190;-76
2022/07/18 02:26:58;;;;;;;3.73;2.90;;;16.00;99.90;;;;;;5073536;28;20166;-68
2022/07/18 02:29:24;;;;;;;3.93;2.40;;;15.90;99.90;;;;;;5073814;28;20408;-76
2022/07/18 02:31:50;;;;;;;3.77;3.10;;;15.90;99.90;;;;;;5073650;28;20442;-76
2022/07/18 02:34:15;;;;;;;3.40;2.53;;;16.00;99.90;;;;;;5072481;28;20193;-73
2022/07/18 02:36:41;;;;;;;5.43;2.90;;;15.90;99.90;;;;;;5073992;28;20182;-68
2022/07/18 02:39:08;;;;;;;3.60;2.83;;;15.90;99.90;;;;;;5072448;28;20202;-68
2022/07/18 02:41:34;;;;;;;2.67;2.47;;;15.90;99.90;;;;;;5073576;28;20412;-67
2022/07/18 02:44:01;;;;;;;3.20;2.90;;;15.90;99.90;;;;;;5072012;28;20424;-68
2022/07/18 02:46:26;;;;;;;3.80;3.10;;;15.90;99.90;;;;;;5073426;28;20170;-76
2022/07/18 02:48:52;;;;;;;2.27;2.17;;;15.90;99.90;;;;;;5073238;28;20412;-67
2022/07/18 02:51:18;;;;;;;2.73;2.30;;;15.90;99.90;;;;;;5073353;28;20249;-77
2022/07/18 02:53:44;;;;;;;3.07;2.63;;;15.90;99.90;;;;;;5083660;28;20209;-76
2022/07/18 02:56:09;;;;;;;3.07;2.67;;;15.90;99.90;;;;;;5093535;28;20222;-76
2022/07/18 02:58:35;;;;;;;3.90;2.93;;;15.90;99.90;;;;;;5093003;28;20197;-70
2022/07/18 03:01:01;;;;;;;2.47;2.20;;;15.80;99.90;;;;;;5093336;28;20161;-76
2022/07/18 03:03:26;;;;;;;3.33;3.13;;;15.80;99.90;;;;;;5091394;28;20234;-68
2022/07/18 03:05:52;;;;;;;7.43;2.70;;;15.80;99.90;;;;;;5093529;28;20179;-77
2022/07/18 03:08:18;;;;;;;4.03;2.30;;;15.80;99.90;;;;;;5092375;28;20184;-68
2022/07/18 03:10:44;;;;;;;2.70;2.50;;;15.80;99.90;;;;;;5092009;28;20193;-67
2022/07/18 03:13:10;;;;;;;3.40;3.10;;;15.70;99.90;;;;;;5092334;28;20170;-68
2022/07/18 03:15:36;;;;;;;2.87;2.67;;;15.70;99.90;;;;;;5093029;28;20178;-69
2022/07/18 03:18:02;;;;;;;3.27;3.07;;;15.70;99.90;;;;;;5092873;28;20414;-68
2022/07/18 03:20:28;;;;;;;3.50;3.30;;;15.70;99.90;;;;;;5093325;28;20396;-68
2022/07/18 03:22:54;;;;;;;3.13;2.83;;;15.70;99.90;;;;;;5092310;28;20399;-76
2022/07/18 03:25:20;;;;;;;2.80;2.60;;;15.70;99.90;;;;;;5081783;28;20873;-68
2022/07/18 03:27:45;;;;;;;3.47;2.77;;;15.70;99.90;;;;;;5072857;28;20512;-74
2022/07/18 03:30:12;;;;;;;3.77;2.80;;;15.70;99.90;;;;;;5073070;28;20284;-68
2022/07/18 03:32:38;;;;;;;3.53;3.20;;;15.70;99.90;;;;;;5072058;28;20558;-76
2022/07/18 03:35:04;;;;;;;4.37;3.23;;;15.70;99.90;;;;;;5071418;28;20440;-76
2022/07/18 03:37:30;;;;;;;5.27;3.47;;;15.70;99.90;;;;;;5072387;28;20448;-76
2022/07/18 03:39:55;;;;;;;3.27;3.07;;;15.70;99.90;;;;;;5072991;28;20499;-71
2022/07/18 03:42:21;;;;;;;4.93;3.13;;;15.70;99.90;;;;;;5071598;28;20623;-68
2022/07/18 03:44:47;;;;;;;4.10;3.70;;;15.80;99.90;;;;;;5072791;28;20614;-68
2022/07/18 03:47:12;;;;;;;3.83;2.83;;;15.80;99.90;;;;;;5071747;28;20691;-68
2022/07/18 03:49:38;;;;;;;3.03;2.73;;;15.80;99.90;;;;;;5072633;28;20174;-76
2022/07/18 03:52:04;;;;;;;4.07;3.17;;;15.80;99.90;;;;;;5074456;28;20177;-76
2022/07/18 03:54:30;;;;;;;12.33;4.53;;;15.90;99.90;;;;;;5075228;28;20212;-68
2022/07/18 03:56:55;;;;;;;2.67;2.57;;;16.00;99.90;;;;;;5082062;28;20928;-68
2022/07/18 03:59:21;;;;;;;4.30;2.70;;;16.00;99.90;;;;;;5096547;28;20587;-76
2022/07/18 04:01:47;;;;;;;3.73;2.43;;;15.90;99.90;;;;;;5095467;28;20615;-68
2022/07/18 04:04:13;;;;;;;3.27;2.80;;;16.00;99.90;;;;;;5095495;28;20268;-76
2022/07/18 04:06:38;;;;;;;3.13;2.50;;;15.90;99.90;;;;;;5096586;28;20227;-75
2022/07/18 04:09:05;;;;;;;2.70;2.50;;;15.80;99.90;;;;;;5095434;28;20412;-77
2022/07/18 04:11:30;;;;;;;3.57;3.00;;;15.80;99.90;;;;;;5095805;28;20185;-69
2022/07/18 04:13:56;;;;;;;3.30;2.60;;;15.80;99.90;;;;;;5092768;28;20869;-68
2022/07/18 04:16:22;;;;;;;3.40;3.10;;;15.80;99.90;;;;;;5096279;28;20256;-68
2022/07/18 04:18:48;;;;;;;2.87;2.60;;;15.90;99.90;;;;;;5096387;28;20249;-68
2022/07/18 04:21:15;;;;;;;6.70;3.73;;;15.90;99.90;;;;;;5096230;28;20488;-68
2022/07/18 04:23:40;;;;;;;2.90;2.67;;;15.90;99.90;;;;;;5095017;28;20426;-74
2022/07/18 04:26:06;;;;;;;6.20;2.70;;;15.90;99.90;;;;;;5095624;28;20403;-75
2022/07/18 04:28:32;;;;;;;5.70;3.00;;;16.00;99.90;;;;;;5091110;28;20583;-68
2022/07/18 04:30:58;;;;;;;5.77;3.37;;;16.00;99.90;;;;;;5075692;28;20166;-68
2022/07/18 04:33:24;;;;;;;9.23;3.20;;;16.10;99.90;;;;;;5073402;28;20776;-76
2022/07/18 04:35:50;;;;;;;3.80;3.17;;;16.10;99.90;;;;;;5075598;28;20661;-76
2022/07/18 04:38:16;;;;;;;3.83;3.53;;;16.20;99.90;;;;;;5075455;28;20571;-68
2022/07/18 04:40:42;;;;;;;4.00;3.23;;;16.30;99.90;;;;;;5075667;28;20182;-76
2022/07/18 04:43:08;;;;;;;3.43;3.13;;;16.30;99.90;;;;;;5074202;28;20404;-68
2022/07/18 04:45:35;;;;;;;4.40;2.80;;;16.30;99.90;;;;;;5075329;28;20867;-68
2022/07/18 04:48:02;;;;;;;5.63;4.03;;;16.40;99.90;;;;;;5075288;28;20166;-76
2022/07/18 04:50:29;;;;;;;8.00;3.70;;;16.40;99.90;;;;;;5075464;28;20408;-68
2022/07/18 04:52:56;;;;;;;3.50;2.97;;;16.30;99.90;;;;;;5074334;28;20454;-77
2022/07/18 04:55:22;;;;;;;3.70;3.40;;;16.30;99.90;;;;;;5075112;28;20417;-74
2022/07/18 04:57:49;;;;;;;8.10;3.23;;;16.40;99.90;;;;;;5075160;28;20401;-69
2022/07/18 05:00:18;;;;;;;4.47;2.87;;;16.40;99.90;;;;;;5074535;28;20582;-74
2022/07/18 05:02:47;;;;;;;3.93;2.77;;;16.50;99.90;;;;;;5074143;28;20424;-69
2022/07/18 05:05:15;;;;;;;4.20;2.90;;;16.60;99.90;;;;;;5075526;28;20421;-72
2022/07/18 05:07:42;;;;;;;4.30;2.70;;;16.60;99.90;;;;;;5085702;28;20427;-67
2022/07/18 05:10:10;;;;;;;3.77;3.30;;;16.70;99.90;;;;;;5095751;28;20426;-75
2022/07/18 05:12:41;;;;;;;3.33;3.03;;;16.70;99.90;;;;;;5088318;28;20415;-75
2022/07/18 05:15:08;;;;;;;3.97;3.57;;;16.80;99.90;;;;;;5094840;28;21119;-76
2022/07/18 05:17:34;;;;;;;4.63;3.00;;;16.80;99.90;;;;;;5094871;28;20392;-76
2022/07/18 05:20:00;;;;;;;4.00;3.60;;;16.90;99.90;;;;;;5094951;28;20469;-78
2022/07/18 05:22:25;;;;;;;3.67;3.30;;;16.90;99.90;;;;;;5094038;28;20189;-76
2022/07/18 05:24:51;;;;;;;3.83;3.43;;;17.00;99.90;;;;;;5093534;28;20189;-76
2022/07/18 05:27:17;;;;;;;4.27;3.60;;;17.10;99.90;;;;;;5093576;28;20173;-76
2022/07/18 05:29:43;;;;;;;7.77;4.27;;;17.10;99.90;;;;;;5094876;28;20884;-76
2022/07/18 05:32:10;;;;;;;3.70;3.40;;;17.20;99.90;;;;;;5094339;28;20587;-74
2022/07/18 05:34:36;;;;;;;4.73;4.20;;;17.30;99.90;;;;;;5094627;28;20268;-77
2022/07/18 05:37:02;;;;;;;5.37;3.80;;;17.40;99.90;;;;;;5094188;28;20427;-76
2022/07/18 05:39:27;;;;;;;4.90;3.30;;;17.30;99.90;;;;;;5094568;28;20244;-68
2022/07/18 05:41:53;;;;;;;4.10;3.47;;;17.40;99.90;;;;;;5085792;28;20262;-68
2022/07/18 05:44:20;;;;;;;3.50;3.20;;;17.40;99.90;;;;;;5073225;28;20655;-69
2022/07/18 05:46:46;;;;;;;4.03;3.13;;;17.60;99.90;;;;;;5074179;28;20154;-68
2022/07/18 05:49:13;;;;;;;3.90;3.40;;;17.50;99.90;;;;;;5074307;28;20731;-76
2022/07/18 05:51:38;;;;;;;3.50;3.20;;;17.60;99.90;;;;;;5074239;28;20404;-68
2022/07/18 05:54:04;;;;;;;3.67;2.90;;;17.50;99.90;;;;;;5072646;28;20424;-76
2022/07/18 05:56:30;;;;;;;5.67;3.43;;;17.50;99.90;;;;;;5073850;28;20249;-69
2022/07/18 05:58:55;;;;;;;7.23;3.27;;;17.60;99.90;;;;;;5086122;28;20224;-68
2022/07/18 06:01:21;;;;;;;6.87;3.33;;;17.70;99.90;;;;;;5094321;28;20261;-76
2022/07/18 06:03:47;;;;;;;4.33;2.53;;;17.70;99.90;;;;;;5093241;28;20184;-68
2022/07/18 06:06:14;;;;;;;4.83;3.33;;;17.70;99.90;;;;;;5094173;28;20170;-75
2022/07/18 06:08:40;;;;;;;3.20;2.90;;;17.60;99.90;;;;;;5093133;28;20764;-69
2022/07/18 06:11:08;;;;;;;3.07;2.87;;;17.60;99.90;;;;;;5092618;28;20427;-68
2022/07/18 06:13:35;;;;;;;6.23;3.47;;;17.60;99.90;;;;;;5092661;28;20415;-76
2022/07/18 06:16:00;;;;;;;6.23;3.00;;;17.60;99.90;;;;;;5092621;28;20465;-76
2022/07/18 06:18:26;;;;;;;5.23;4.00;;;17.70;99.90;;;;;;5093817;28;20884;-68
2022/07/18 06:20:52;;;;;;;5.93;3.03;;;17.70;99.90;;;;;;5092637;28;20169;-77
2022/07/18 06:23:17;;;;;;;3.40;3.10;;;17.80;99.90;;;;;;5091916;28;20165;-77
2022/07/18 06:25:43;;;;;;;5.83;3.27;;;17.90;99.90;;;;;;5092659;28;20181;-76
2022/07/18 06:28:08;;;;;;;6.50;3.27;;;17.90;99.90;;;;;;5093516;28;20165;-77
2022/07/18 06:30:34;;;;;;;3.33;3.03;;;18.00;99.90;;;;;;5092516;28;20205;-68
2022/07/18 06:33:03;;;;;;;3.57;3.20;;;18.00;99.90;;;;;;5092754;28;20165;-68
2022/07/18 06:35:29;;;;;;;5.83;3.80;;;18.00;99.90;;;;;;5093660;28;20200;-76
2022/07/18 06:37:54;;;;;;;4.93;3.50;;;18.00;99.90;;;;;;5093807;28;20896;-68
2022/07/18 06:40:20;;;;;;;4.87;3.60;;;18.10;99.90;;;;;;5093619;28;20732;-76
2022/07/18 06:42:46;;;;;;;6.00;3.80;;;18.20;99.90;;;;;;5092637;28;20165;-73
2022/07/18 06:45:12;;;;;;;4.63;3.10;;;18.20;98.10;;;;;;5093035;28;20415;-76
2022/07/18 06:47:37;;;;;;;7.57;4.00;;;18.10;95.00;;;;;;5075365;28;20336;-68
2022/07/18 06:50:03;;;;;;;3.37;3.00;;;18.10;95.10;;;;;;5073384;28;20166;-68
2022/07/18 06:52:29;;;;;;;5.03;3.40;;;18.20;95.30;;;;;;5072404;28;20158;-69
2022/07/18 06:54:54;;;;;;;5.80;3.40;;;18.30;95.10;;;;;;5073131;28;20416;-76
2022/07/18 06:57:20;;;;;;;6.30;3.83;;;18.40;95.10;;;;;;5072281;28;20205;-76
2022/07/18 06:59:46;;;;;;;4.73;3.40;;;18.40;95.10;;;;;;5071833;28;20221;-68
2022/07/18 07:02:12;;;;;;;4.07;3.30;;;18.40;95.10;;;;;;5071470;28;20173;-75
2022/07/18 07:04:37;;;;;;;4.13;3.63;;;18.60;95.20;;;;;;5072828;28;20178;-76
2022/07/18 07:07:03;;;;;;;4.70;3.57;;;18.60;95.20;;;;;;5073037;28;20169;-68
2022/07/18 07:09:28;;;;;;;3.87;3.43;;;18.60;95.20;;;;;;5071150;28;20697;-68
2022/07/18 07:11:54;;;;;;;3.63;3.30;;;18.60;95.20;;;;;;5073215;28;20753;-72
2022/07/18 07:14:20;;;;;;;3.90;3.50;;;18.60;95.20;;;;;;5072362;28;20201;-68
2022/07/18 07:16:45;;;;;;;5.03;4.07;;;18.60;95.20;;;;;;5073259;28;20170;-77
2022/07/18 07:19:11;;;;;;;4.50;3.57;;;18.80;95.30;;;;;;5073231;28;20277;-68
2022/07/18 07:21:37;;;;;;;4.10;3.70;;;18.90;95.30;;;;;;5072992;28;20235;-76
2022/07/18 07:24:02;;;;;;;3.80;3.20;;;19.00;95.40;;;;;;5071605;28;20520;-75
2022/07/18 07:26:28;;;;;;;6.93;3.80;;;19.00;95.30;;;;;;5074255;28;20193;-76
2022/07/18 07:28:54;;;;;;;4.90;3.80;;;19.10;95.30;;;;;;5077016;28;20186;-77
2022/07/18 07:31:19;;;;;;;3.93;3.57;;;19.10;91.70;;;;;;5076805;28;20504;-70
2022/07/18 07:33:45;;;;;;;5.97;3.97;;;19.40;91.00;;;;;;5075960;28;20555;-75
2022/07/18 07:36:11;;;;;;;4.23;3.90;;;19.50;80.80;;;;;;5077906;28;20193;-76
2022/07/18 07:38:37;;;;;;;4.63;3.37;;;19.60;75.40;;;;;;5075519;28;20234;-76
2022/07/18 07:41:03;;;;;;;5.60;3.43;;;19.60;76.90;;;;;;5076676;28;20669;-68
2022/07/18 07:43:29;;;;;;;7.03;3.63;;;19.70;71.20;;;;;;5074081;28;20408;-76
2022/07/18 07:45:55;;;;;;;3.20;2.80;;;19.70;69.70;;;;;;5076459;28;20485;-76
2022/07/18 07:48:22;;;;;;;4.13;3.37;;;19.80;75.00;;;;;;5076618;28;20492;-68
2022/07/18 07:50:47;;;;;;;5.40;3.73;;;19.90;71.00;;;;;;5095417;28;20435;-77
2022/07/18 07:53:13;;;;;;;6.53;3.60;;;20.00;66.00;;;;;;5094391;28;20404;-69
2022/07/18 07:55:39;;;;;;;7.13;3.83;;;20.10;60.40;;;;;;5086588;28;20182;-68
2022/07/18 07:58:05;;;;;;;4.37;3.70;;;20.10;52.20;;;;;;5075715;28;20526;-77
2022/07/18 08:00:31;;;;;;;4.10;3.70;;;20.20;53.40;;;;;;5094023;28;20755;-77
2022/07/18 08:03:02;;;;;;;5.10;3.77;;;20.30;47.20;;;;;;5093982;28;20533;-76
2022/07/18 08:05:31;;;;;;;3.67;3.37;;;20.30;47.60;;;;;;5096220;28;20649;-77
2022/07/18 08:07:58;;;;;;;4.87;3.40;;;20.40;49.90;;;;;;5096428;28;20740;-67
2022/07/18 08:10:23;;;;;;;7.30;3.90;;;20.60;45.90;;;;;;5096465;28;20419;-77
2022/07/18 08:12:49;;;;;;;7.13;3.80;;;20.70;50.30;;;;;;5094281;28;20454;-76
2022/07/18 08:15:15;;;;;;;7.80;4.70;;;20.90;52.00;;;;;;5096205;28;20185;-76
2022/07/18 08:17:41;;;;;;;6.63;4.50;;;21.00;39.00;;;;;;5095853;28;20165;-70
2022/07/18 08:20:07;;;;;;;5.40;4.67;;;21.10;41.60;;;;;;5096089;28;20600;-68
2022/07/18 08:22:33;;;;;;;4.30;3.60;;;21.30;33.80;;;;;;5095152;28;20169;-76
2022/07/18 08:24:59;;;;;;;5.30;3.60;;;21.40;22.40;;;;;;5096057;28;20476;-77
2022/07/18 08:27:24;;;;;;;4.00;3.60;;;21.40;21.10;;;;;;5095152;28;20257;-67
2022/07/18 08:29:50;;;;;;;5.90;3.60;;;21.40;20.40;;;;;;5093289;28;20181;-77
2022/07/18 08:32:16;;;;;;;5.40;4.90;;;21.40;20.20;;;;;;5095182;28;20166;-77
2022/07/18 08:34:41;;;;;;;6.93;4.13;;;21.50;20.50;;;;;;5095871;28;20215;-76
2022/07/18 08:37:07;;;;;;;4.90;4.20;;;21.50;19.60;;;;;;5094223;28;20802;-68
2022/07/18 08:39:33;;;;;;;5.17;4.00;;;21.60;21.00;;;;;;5095606;28;20280;-77
2022/07/18 08:42:01;;;;;;;4.63;4.13;;;21.60;16.00;;;;;;5095511;28;20633;-76
2022/07/18 08:44:28;;;;;;;4.67;3.83;;;21.60;14.50;;;;;;5093348;28;20199;-68
2022/07/18 08:46:57;;;;;;;6.30;4.43;;;21.50;12.30;;;;;;5095770;28;20424;-68
2022/07/18 08:49:23;;;;;;;4.77;4.37;;;21.50;12.60;;;;;;5095616;28;20403;-77
2022/07/18 08:51:50;;;;;;;6.13;4.33;;;21.50;8.10;;;;;;5095496;28;20435;-76
2022/07/18 08:54:16;;;;;;;6.80;3.73;;;21.70;2.20;;;;;;5094524;28;20419;-77
2022/07/18 08:56:42;;;;;;;7.93;4.60;;;21.80;4.60;;;;;;5095171;28;20752;-73
2022/07/18 08:59:07;;;;;;;5.33;3.50;;;22.00;1.00;;;;;;5095323;28;20599;-68
2022/07/18 09:01:33;;;;;;;4.60;4.03;;;22.30;1.00;;;;;;5083734;28;20174;-68
2022/07/18 09:04:19;;;;;;;5.00;4.60;;;22.50;1.00;;;;;;5073992;28;20185;-68
2022/07/18 09:06:48;;;;;;;4.40;4.00;;;22.60;1.00;;;;;;5073772;28;20800;-69
2022/07/18 09:09:16;;;;;;;3.97;3.57;;;22.80;1.00;;;;;;5074967;28;20819;-68
2022/07/18 09:11:54;;;;;;;6.33;4.97;;;23.00;1.00;;;;;;5074792;28;20452;-77
2022/07/18 09:14:40;;;;;;;5.00;3.90;;;23.20;1.00;;;;;;5073899;28;20938;-76
2022/07/18 09:17:14;;;;;;;5.53;4.40;;;23.40;1.00;;;;;;5074155;28;20947;-76
2022/07/18 09:19:55;;;;;;;4.50;3.60;;;23.60;1.00;;;;;;5073601;28;20502;-68
2022/07/18 09:22:22;;;;;;;7.70;3.63;;;23.70;1.00;;;;;;5073767;28;20474;-68
2022/07/18 09:25:03;;;;;;;4.70;3.60;;;23.60;1.00;;;;;;5074661;28;20521;-69
2022/07/18 09:27:30;;;;;;;4.10;3.70;;;23.40;1.00;;;;;;5074657;28;20401;-68
2022/07/18 09:30:30;;;;;;;4.07;3.50;;;23.50;1.00;;;;;;5074689;28;20393;-68
2022/07/18 09:33:06;;;;;;;4.63;3.37;;;23.70;1.00;;;;;;5073618;28;20404;-77
2022/07/18 09:35:34;;;;;;;3.70;3.20;;;23.70;1.00;;;;;;5093520;28;20439;-76
2022/07/18 09:38:10;;;;;;;5.90;4.00;;;23.80;1.00;;;;;;5094780;28;20860;-69
2022/07/18 09:40:41;;;;;;;5.23;3.37;;;24.00;1.00;;;;;;5094573;28;20863;-68
2022/07/18 09:43:09;;;;;;;4.43;4.00;;;24.20;1.00;;;;;;5093908;28;20395;-76
2022/07/18 09:45:36;;;;;;;6.77;4.27;;;24.30;1.00;;;;;;5094495;28;20416;-77
2022/07/18 09:48:13;;;;;;;6.07;3.73;;;24.50;1.00;;;;;;5094133;28;20410;-67
2022/07/18 09:50:52;;;;;;;4.57;4.10;;;24.50;1.00;;;;;;5083436;28;20432;-76
2022/07/18 09:53:23;;;;;;;4.90;3.57;;;24.70;1.00;;;;;;5073137;28;20404;-76
2022/07/18 09:55:53;;;;;;;4.57;3.70;;;25.00;1.00;;;;;;5073653;28;20397;-69
2022/07/18 09:58:23;;;;;;;4.70;4.03;;;25.10;1.00;;;;;;5073907;28;20384;-76
2022/07/18 10:00:49;;;;;;;4.97;3.97;;;25.10;1.00;;;;;;5073910;28;20405;-76
2022/07/18 10:03:16;;;;;;;7.27;4.27;;;25.10;1.00;;;;;;5073075;28;20397;-76
2022/07/18 10:05:44;;;;;;;11.17;5.40;;;25.00;1.00;;;;;;5073351;28;20496;-77
2022/07/18 10:08:12;;;;;;;5.13;3.73;;;25.20;1.00;;;;;;5073996;28;20525;-76
2022/07/18 10:10:40;;;;;;;4.67;4.27;;;25.40;1.00;;;;;;5073953;28;20420;-68
2022/07/18 10:13:07;;;;;;;4.77;4.37;;;25.50;1.00;;;;;;5072682;28;20557;-70
2022/07/18 10:15:36;;;;;;;6.87;4.40;;;25.60;1.00;;;;;;5073492;28;20440;-68
2022/07/18 10:18:04;;;;;;;6.20;4.63;;;25.80;1.00;;;;;;5073850;28;20392;-77
2022/07/18 10:20:36;;;;;;;5.80;5.17;;;25.90;1.00;;;;;;5081613;28;20994;-77
2022/07/18 10:23:20;;;;;;;5.73;3.90;;;25.90;1.00;;;;;;5092890;28;21237;-76
2022/07/18 10:26:12;;;;;;;4.77;3.87;;;25.90;1.00;;;;;;5092581;28;20789;-68
2022/07/18 10:29:00;;;;;;;5.63;4.17;;;25.80;1.00;;;;;;5093887;28;20396;-69
2022/07/18 10:31:37;;;;;;;5.60;4.60;;;25.90;1.00;;;;;;5090848;28;20804;-77
2022/07/18 10:34:11;;;;;;;4.47;4.10;;;25.80;1.00;;;;;;5092764;28;20507;-68
2022/07/18 10:36:40;;;;;;;5.40;4.73;;;25.90;1.00;;;;;;5093757;28;20486;-68
2022/07/18 10:39:19;;;;;;;5.67;4.37;;;26.10;1.00;;;;;;5093503;28;20447;-68
2022/07/18 10:42:08;;;;;;;7.77;4.73;;;26.30;1.00;;;;;;5093602;28;20399;-68
2022/07/18 10:44:35;;;;;;;5.00;4.60;;;26.50;1.00;;;;;;5093153;28;20490;-77
2022/07/18 10:47:11;;;;;;;6.93;4.50;;;26.50;1.00;;;;;;5093440;28;20482;-76
2022/07/18 10:50:04;;;;;;;6.37;4.87;;;26.60;1.00;;;;;;5093108;28;20423;-76
2022/07/18 10:52:29;;;;;;;5.80;4.70;;;26.70;1.00;;;;;;5089440;28;20423;-69
2022/07/18 10:55:08;;;;;;;6.83;4.80;;;26.90;1.00;;;;;;5093360;28;20507;-68
2022/07/18 10:57:41;;;;;;;5.13;4.63;;;26.80;1.00;;;;;;5093576;28;20168;-68
2022/07/18 11:00:11;;;;;;;6.57;4.97;;;26.70;1.00;;;;;;5093614;28;20447;-69
2022/07/18 11:02:40;;;;;;;6.47;4.80;;;26.90;1.00;;;;;;5096961;28;20400;-75
2022/07/18 11:05:27;;;;;;;7.77;4.63;;;27.10;1.00;;;;;;5097428;28;20506;-70
2022/07/18 11:07:59;;;;;;;7.67;4.73;;;27.20;1.00;;;;;;5097342;28;20391;-77
2022/07/18 11:10:54;;;;;;;6.23;4.90;;;27.40;1.00;;;;;;5097446;28;20497;-69
2022/07/18 11:13:29;;;;;;;5.20;4.70;;;27.60;1.00;;;;;;5096605;28;20410;-69
2022/07/18 11:16:09;;;;;;;7.47;5.67;;;27.60;1.00;;;;;;5097564;28;20390;-77
2022/07/18 11:18:44;;;;;;;7.27;5.20;;;27.60;1.00;;;;;;5097290;28;20406;-78
2022/07/18 11:21:32;;;;;;;5.60;4.70;;;27.80;1.00;;;;;;5097401;28;20391;-77
2022/07/18 11:24:06;;;;;;;9.13;5.13;;;27.90;1.00;;;;;;5096581;28;20772;-76
2022/07/18 11:26:35;;;;;;;8.00;5.80;;;27.80;1.00;;;;;;5097404;28;20462;-69
2022/07/18 11:29:06;;;;;;;6.27;4.30;;;27.70;1.00;;;;;;5096683;28;20437;-76
2022/07/18 11:31:46;;;;;;;5.70;4.97;;;27.20;1.00;;;;;;5097152;28;20425;-76
2022/07/18 11:34:12;;;;;;;5.60;5.00;;;27.20;1.00;;;;;;5096437;28;20426;-77
2022/07/18 11:36:41;;;;;;;5.63;4.50;;;27.00;1.00;;;;;;5097203;28;20396;-68
2022/07/18 11:39:06;;;;;;;10.40;5.30;;;26.70;1.00;;;;;;5096849;28;20232;-76
2022/07/18 11:41:32;;;;;;;7.10;4.80;;;26.60;1.00;;;;;;5096976;28;20420;-68
2022/07/18 11:43:58;;;;;;;4.37;3.97;;;26.40;1.00;;;;;;5095998;28;20669;-70
2022/07/18 11:46:26;;;;;;;7.47;5.37;;;26.40;1.00;;;;;;5096545;28;20157;-77
2022/07/18 11:49:00;;;;;;;6.00;4.27;;;26.30;1.00;;;;;;5096856;28;20189;-68
2022/07/18 11:51:33;;;;;;;6.80;4.40;;;26.00;1.00;;;;;;5096711;28;20402;-77
2022/07/18 11:53:58;;;;;;;5.07;4.10;;;25.90;1.00;;;;;;5096096;28;20439;-77
2022/07/18 11:56:24;;;;;;;6.30;4.80;;;25.80;1.00;;;;;;5096698;28;20458;-68
2022/07/18 11:58:50;;;;;;;8.33;5.50;;;25.80;1.00;;;;;;5095538;28;20247;-77
2022/07/18 12:01:16;;;;;;;9.10;6.00;;;25.70;1.00;;;;;;5096616;28;20158;-68
2022/07/18 12:03:47;;;;;;;7.57;5.20;;;25.60;1.00;;;;;;5095323;28;20753;-78
2022/07/18 12:06:21;;;;;;;5.70;4.97;;;25.40;1.00;;;;;;5096460;28;20940;-69
2022/07/18 12:08:47;;;;;;;6.50;5.10;;;25.30;1.00;;;;;;5096457;28;20404;-69
2022/07/18 12:11:34;;;;;;;6.13;4.70;;;25.40;1.00;;;;;;5095997;28;20784;-73
2022/07/18 12:14:09;;;;;;;4.43;4.00;;;25.40;1.00;;;;;;5095582;28;20411;-77
2022/07/18 12:16:44;;;;;;;5.67;5.20;;;25.50;1.00;;;;;;5096210;28;20387;-68
2022/07/18 12:19:26;;;;;;;5.80;4.80;;;25.60;1.00;;;;;;5096213;28;20455;-69
2022/07/18 12:21:56;;;;;;;5.90;4.60;;;25.40;1.00;;;;;;5095762;28;20399;-68
2022/07/18 12:24:31;;;;;;;7.27;4.80;;;25.50;1.00;;;;;;5095451;28;20410;-76
2022/07/18 12:27:19;;;;;;;5.03;4.53;;;25.80;1.00;;;;;;5096205;28;20391;-69
2022/07/18 12:30:11;;;;;;;6.07;4.67;;;26.00;1.00;;;;;;5095849;28;20823;-70
2022/07/18 12:32:38;;;;;;;5.90;4.50;;;26.00;1.00;;;;;;5095371;28;20396;-69
2022/07/18 12:35:09;;;;;;;7.77;4.77;;;25.90;1.00;;;;;;5095913;28;20432;-77
2022/07/18 12:37:35;;;;;;;5.80;4.73;;;25.80;1.00;;;;;;5095970;28;20884;-70
2022/07/18 12:40:06;;;;;;;5.83;5.00;;;25.60;1.00;;;;;;5095548;28;20493;-77
2022/07/18 12:42:40;;;;;;;6.10;4.07;;;25.60;1.00;;;;;;5094971;28;20622;-69
2022/07/18 12:45:09;;;;;;;7.03;4.70;;;25.50;1.00;;;;;;5095795;28;20411;-69
2022/07/18 12:47:35;;;;;;;8.27;5.10;;;25.50;1.00;;;;;;5095730;28;20400;-70
2022/07/18 12:50:02;;;;;;;5.30;4.80;;;25.40;1.00;;;;;;5095585;28;20426;-69
2022/07/18 12:52:28;;;;;;;5.00;4.40;;;25.50;1.00;;;;;;5093998;28;20204;-77
2022/07/18 12:54:53;;;;;;;5.80;4.50;;;25.60;1.00;;;;;;5095508;28;20463;-77
2022/07/18 12:57:19;;;;;;;6.93;4.13;;;25.60;1.00;;;;;;5095259;28;20286;-77
2022/07/18 12:59:46;;;;;;;6.60;4.70;;;25.50;1.00;;;;;;5095157;28;20661;-78
2022/07/18 13:02:13;;;;;;;6.20;4.60;;;25.50;1.00;;;;;;5094723;28;20195;-76